sensor_id;sensor_type;location;lat;lon;timestamp;pressure;altitude;pressure_sealevel;temperature;humidity
55994;BME280;67425;52.126;20.638;2024-01-30T00:01:16;57854.88;;;-144.78;76.56
55994;BME280;67425;52.126;20.638;2024-01-30T00:03:42;57859.03;;;-144.78;76.89
55994;BME280;67425;52.126;20.638;2024-01-30T00:06:11;57865.25;;;-144.78;76.47
55994;BME280;67425;52.126;20.638;2024-01-30T00:08:36;57875.63;;;-144.78;77.09
55994;BME280;67425;52.126;20.638;2024-01-30T00:11:01;57886.03;;;-144.78;76.31
55994;BME280;67425;52.126;20.638;2024-01-30T00:13:27;57883.94;;;-144.78;75.55
55994;BME280;67425;52.126;20.638;2024-01-30T00:15:52;57861.09;;;-144.78;76.08
55994;BME280;67425;52.126;20.638;2024-01-30T00:18:19;57854.88;;;-144.78;74.94
55994;BME280;67425;52.126;20.638;2024-01-30T00:20:44;57850.72;;;-144.78;74.41
55994;BME280;67425;52.126;20.638;2024-01-30T00:23:10;57883.94;;;-144.78;74.85
55994;BME280;67425;52.126;20.638;2024-01-30T00:25:35;57879.78;;;-144.78;74.91
55994;BME280;67425;52.126;20.638;2024-01-30T00:28:00;57856.94;;;-144.78;74.17
55994;BME280;67425;52.126;20.638;2024-01-30T00:30:26;57838.25;;;-144.78;73.54
55994;BME280;67425;52.126;20.638;2024-01-30T00:32:51;57848.63;;;-144.78;73.73
55994;BME280;67425;52.126;20.638;2024-01-30T00:35:17;57850.72;;;-144.78;73.87
55994;BME280;67425;52.126;20.638;2024-01-30T00:37:42;57865.25;;;-144.78;72.89
55994;BME280;67425;52.126;20.638;2024-01-30T00:40:08;57840.34;;;-144.78;72.08
55994;BME280;67425;52.126;20.638;2024-01-30T00:42:35;57850.72;;;-144.78;72.33
55994;BME280;67425;52.126;20.638;2024-01-30T00:45:00;57840.34;;;-144.78;72.58
55994;BME280;67425;52.126;20.638;2024-01-30T00:47:26;57848.63;;;-144.78;72.60
55994;BME280;67425;52.126;20.638;2024-01-30T00:49:51;57844.47;;;-144.78;72.44
55994;BME280;67425;52.126;20.638;2024-01-30T00:52:17;57840.34;;;-144.78;72.05
55994;BME280;67425;52.126;20.638;2024-01-30T00:54:42;57836.19;;;-144.78;71.46
55994;BME280;67425;52.126;20.638;2024-01-30T00:57:08;57865.25;;;-144.78;70.93
55994;BME280;67425;52.126;20.638;2024-01-30T00:59:33;57848.63;;;-144.78;70.76
55994;BME280;67425;52.126;20.638;2024-01-30T01:01:59;57829.94;;;-144.78;70.83
55994;BME280;67425;52.126;20.638;2024-01-30T01:04:25;57840.34;;;-144.78;70.96
55994;BME280;67425;52.126;20.638;2024-01-30T01:06:51;57836.19;;;-144.78;71.15
55994;BME280;67425;52.126;20.638;2024-01-30T01:09:17;57819.56;;;-144.78;71.19
55994;BME280;67425;52.126;20.638;2024-01-30T01:11:42;57848.63;;;-144.78;71.29
55994;BME280;67425;52.126;20.638;2024-01-30T01:14:07;57834.09;;;-144.78;71.53
55994;BME280;67425;52.126;20.638;2024-01-30T01:16:33;57838.25;;;-144.78;71.60
55994;BME280;67425;52.126;20.638;2024-01-30T01:18:58;57821.63;;;-144.78;71.74
55994;BME280;67425;52.126;20.638;2024-01-30T01:21:25;57848.63;;;-144.78;72.13
55994;BME280;67425;52.126;20.638;2024-01-30T01:23:51;57869.41;;;-144.78;72.16
55994;BME280;67425;52.126;20.638;2024-01-30T01:26:16;57865.25;;;-144.78;72.19
55994;BME280;67425;52.126;20.638;2024-01-30T01:28:41;57846.56;;;-144.78;72.31
55994;BME280;67425;52.126;20.638;2024-01-30T01:31:07;57842.41;;;-144.78;71.73
55994;BME280;67425;52.126;20.638;2024-01-30T01:33:32;57842.41;;;-144.78;71.48
55994;BME280;67425;52.126;20.638;2024-01-30T01:35:59;57809.19;;;-144.78;70.84
55994;BME280;67425;52.126;20.638;2024-01-30T01:38:24;57825.78;;;-144.78;71.83
55994;BME280;67425;52.126;20.638;2024-01-30T01:40:50;57865.25;;;-144.78;72.05
55994;BME280;67425;52.126;20.638;2024-01-30T01:43:16;57840.34;;;-144.78;71.82
55994;BME280;67425;52.126;20.638;2024-01-30T01:45:41;57852.78;;;-144.78;71.55
55994;BME280;67425;52.126;20.638;2024-01-30T01:48:07;57844.47;;;-144.78;72.50
55994;BME280;67425;52.126;20.638;2024-01-30T01:50:33;57829.94;;;-144.78;71.91
55994;BME280;67425;52.126;20.638;2024-01-30T01:52:59;57838.25;;;-144.78;72.13
55994;BME280;67425;52.126;20.638;2024-01-30T01:55:24;57834.09;;;-144.78;72.80
55994;BME280;67425;52.126;20.638;2024-01-30T01:57:52;57852.78;;;-144.78;72.39
55994;BME280;67425;52.126;20.638;2024-01-30T02:00:18;57859.03;;;-144.78;72.41
55994;BME280;67425;52.126;20.638;2024-01-30T02:02:45;57840.34;;;-144.78;73.01
55994;BME280;67425;52.126;20.638;2024-01-30T02:05:11;57883.94;;;-144.78;73.24
55994;BME280;67425;52.126;20.638;2024-01-30T02:07:36;57838.25;;;-144.78;73.11
55994;BME280;67425;52.126;20.638;2024-01-30T02:10:02;57823.72;;;-144.78;73.13
55994;BME280;67425;52.126;20.638;2024-01-30T02:12:29;57886.03;;;-144.78;73.96
55994;BME280;67425;52.126;20.638;2024-01-30T02:14:54;57859.03;;;-144.78;73.74
55994;BME280;67425;52.126;20.638;2024-01-30T02:17:20;57879.78;;;-144.78;74.08
55994;BME280;67425;52.126;20.638;2024-01-30T02:19:46;57838.25;;;-144.78;73.55
55994;BME280;67425;52.126;20.638;2024-01-30T02:22:11;57879.78;;;-144.78;74.37
55994;BME280;67425;52.126;20.638;2024-01-30T02:24:38;57875.63;;;-144.78;73.81
55994;BME280;67425;52.126;20.638;2024-01-30T02:27:03;57892.25;;;-144.78;73.44
55994;BME280;67425;52.126;20.638;2024-01-30T02:29:28;57856.94;;;-144.78;72.98
55994;BME280;67425;52.126;20.638;2024-01-30T02:31:54;57871.50;;;-144.78;73.40
55994;BME280;67425;52.126;20.638;2024-01-30T02:34:19;57854.88;;;-144.78;74.06
55994;BME280;67425;52.126;20.638;2024-01-30T02:36:45;57873.56;;;-144.78;73.65
55994;BME280;67425;52.126;20.638;2024-01-30T02:39:11;57877.72;;;-144.78;73.99
55994;BME280;67425;52.126;20.638;2024-01-30T02:41:36;57869.41;;;-144.78;73.79
55994;BME280;67425;52.126;20.638;2024-01-30T02:44:02;57886.03;;;-144.78;75.34
55994;BME280;67425;52.126;20.638;2024-01-30T02:46:28;57892.25;;;-144.78;74.15
55994;BME280;67425;52.126;20.638;2024-01-30T02:48:53;57879.78;;;-144.78;74.60
55994;BME280;67425;52.126;20.638;2024-01-30T02:51:19;57877.72;;;-144.78;74.61
55994;BME280;67425;52.126;20.638;2024-01-30T02:53:44;57871.50;;;-144.78;74.41
55994;BME280;67425;52.126;20.638;2024-01-30T02:56:09;57850.72;;;-144.78;75.14
55994;BME280;67425;52.126;20.638;2024-01-30T02:58:38;57852.78;;;-144.78;74.28
55994;BME280;67425;52.126;20.638;2024-01-30T03:01:04;57873.56;;;-144.78;73.99
55994;BME280;67425;52.126;20.638;2024-01-30T03:03:29;57873.56;;;-144.78;74.37
55994;BME280;67425;52.126;20.638;2024-01-30T03:05:55;57875.63;;;-144.78;73.67
55994;BME280;67425;52.126;20.638;2024-01-30T03:08:20;57867.34;;;-144.78;73.96
55994;BME280;67425;52.126;20.638;2024-01-30T03:10:46;57842.41;;;-144.78;73.85
55994;BME280;67425;52.126;20.638;2024-01-30T03:13:11;57873.56;;;-144.78;74.08
55994;BME280;67425;52.126;20.638;2024-01-30T03:15:36;57875.63;;;-144.78;74.34
55994;BME280;67425;52.126;20.638;2024-01-30T03:18:02;57846.56;;;-144.78;73.52
55994;BME280;67425;52.126;20.638;2024-01-30T03:20:31;57886.03;;;-144.78;73.77
55994;BME280;67425;52.126;20.638;2024-01-30T03:22:57;57871.50;;;-144.78;73.61
55994;BME280;67425;52.126;20.638;2024-01-30T03:25:22;57867.34;;;-144.78;73.78
55994;BME280;67425;52.126;20.638;2024-01-30T03:27:48;57856.94;;;-144.78;73.99
55994;BME280;67425;52.126;20.638;2024-01-30T03:30:14;57867.34;;;-144.78;73.82
55994;BME280;67425;52.126;20.638;2024-01-30T03:32:39;57877.72;;;-144.78;73.31
55994;BME280;67425;52.126;20.638;2024-01-30T03:35:05;57865.25;;;-144.78;73.67
55994;BME280;67425;52.126;20.638;2024-01-30T03:37:30;57919.25;;;-144.78;75.26
55994;BME280;67425;52.126;20.638;2024-01-30T03:39:56;57900.56;;;-144.78;74.97
55994;BME280;67425;52.126;20.638;2024-01-30T03:42:21;57865.25;;;-144.78;74.99
55994;BME280;67425;52.126;20.638;2024-01-30T03:44:47;57913.03;;;-144.78;76.11
55994;BME280;67425;52.126;20.638;2024-01-30T03:47:12;57894.34;;;-144.78;76.12
55994;BME280;67425;52.126;20.638;2024-01-30T03:49:38;57896.41;;;-144.78;75.38
55994;BME280;67425;52.126;20.638;2024-01-30T03:52:03;57900.56;;;-144.78;76.25
55994;BME280;67425;52.126;20.638;2024-01-30T03:54:29;57900.56;;;-144.78;75.97
55994;BME280;67425;52.126;20.638;2024-01-30T03:56:54;57883.94;;;-144.78;76.93
55994;BME280;67425;52.126;20.638;2024-01-30T03:59:19;57881.88;;;-144.78;76.10
55994;BME280;67425;52.126;20.638;2024-01-30T04:01:52;57875.63;;;-144.78;76.01
55994;BME280;67425;52.126;20.638;2024-01-30T04:04:18;57879.78;;;-144.78;75.59
55994;BME280;67425;52.126;20.638;2024-01-30T04:06:44;57904.72;;;-144.78;75.59
55994;BME280;67425;52.126;20.638;2024-01-30T04:09:09;57904.72;;;-144.78;75.54
55994;BME280;67425;52.126;20.638;2024-01-30T04:11:35;57894.34;;;-144.78;76.24
55994;BME280;67425;52.126;20.638;2024-01-30T04:14:00;57923.41;;;-144.78;78.46
55994;BME280;67425;52.126;20.638;2024-01-30T04:16:26;57923.41;;;-144.78;80.01
55994;BME280;67425;52.126;20.638;2024-01-30T04:18:52;57940.03;;;-144.78;78.80
55994;BME280;67425;52.126;20.638;2024-01-30T04:21:17;57890.19;;;-144.78;79.34
55994;BME280;67425;52.126;20.638;2024-01-30T04:23:42;57881.88;;;-144.78;79.46
55994;BME280;67425;52.126;20.638;2024-01-30T04:26:08;57931.72;;;-144.78;80.10
55994;BME280;67425;52.126;20.638;2024-01-30T04:28:33;57888.09;;;-144.78;78.93
55994;BME280;67425;52.126;20.638;2024-01-30T04:30:59;57937.94;;;-144.78;79.23
55994;BME280;67425;52.126;20.638;2024-01-30T04:33:24;57927.56;;;-144.78;79.99
55994;BME280;67425;52.126;20.638;2024-01-30T04:35:49;57935.88;;;-144.78;80.60
55994;BME280;67425;52.126;20.638;2024-01-30T04:38:15;57917.19;;;-144.78;80.62
55994;BME280;67425;52.126;20.638;2024-01-30T04:40:40;57933.78;;;-144.78;81.04
55994;BME280;67425;52.126;20.638;2024-01-30T04:43:06;57919.25;;;-144.78;81.13
55994;BME280;67425;52.126;20.638;2024-01-30T04:45:31;57904.72;;;-144.78;80.97
55994;BME280;67425;52.126;20.638;2024-01-30T04:47:57;57929.63;;;-144.78;81.18
55994;BME280;67425;52.126;20.638;2024-01-30T04:50:23;57925.50;;;-144.78;79.12
55994;BME280;67425;52.126;20.638;2024-01-30T04:52:48;57944.19;;;-144.78;79.33
55994;BME280;67425;52.126;20.638;2024-01-30T04:55:14;57900.56;;;-144.78;78.65
55994;BME280;67425;52.126;20.638;2024-01-30T04:57:39;57929.63;;;-144.78;78.81
55994;BME280;67425;52.126;20.638;2024-01-30T05:00:05;57913.03;;;-144.78;78.05
55994;BME280;67425;52.126;20.638;2024-01-30T05:02:31;57881.88;;;-144.78;78.56
55994;BME280;67425;52.126;20.638;2024-01-30T05:04:56;57913.03;;;-144.78;80.29
55994;BME280;67425;52.126;20.638;2024-01-30T05:07:24;57910.94;;;-144.78;79.70
55994;BME280;67425;52.126;20.638;2024-01-30T05:09:50;57933.78;;;-144.78;80.25
55994;BME280;67425;52.126;20.638;2024-01-30T05:12:15;57896.41;;;-144.78;80.16
55994;BME280;67425;52.126;20.638;2024-01-30T05:14:41;57904.72;;;-144.78;78.34
55994;BME280;67425;52.126;20.638;2024-01-30T05:17:06;57919.25;;;-144.78;76.56
55994;BME280;67425;52.126;20.638;2024-01-30T05:19:33;57894.34;;;-144.78;76.94
55994;BME280;67425;52.126;20.638;2024-01-30T05:21:58;57906.78;;;-144.78;76.94
55994;BME280;67425;52.126;20.638;2024-01-30T05:24:23;57908.88;;;-144.78;76.98
55994;BME280;67425;52.126;20.638;2024-01-30T05:26:49;57917.19;;;-144.78;79.25
55994;BME280;67425;52.126;20.638;2024-01-30T05:29:16;57919.25;;;-144.78;79.60
55994;BME280;67425;52.126;20.638;2024-01-30T05:31:41;57917.19;;;-144.78;79.86
55994;BME280;67425;52.126;20.638;2024-01-30T05:34:07;57900.56;;;-144.78;79.05
55994;BME280;67425;52.126;20.638;2024-01-30T05:36:33;57919.25;;;-144.78;80.07
55994;BME280;67425;52.126;20.638;2024-01-30T05:38:58;57890.19;;;-144.78;80.05
55994;BME280;67425;52.126;20.638;2024-01-30T05:41:24;57896.41;;;-144.78;79.37
55994;BME280;67425;52.126;20.638;2024-01-30T05:43:49;57925.50;;;-144.78;79.14
55994;BME280;67425;52.126;20.638;2024-01-30T05:46:15;57923.41;;;-144.78;79.59
55994;BME280;67425;52.126;20.638;2024-01-30T05:48:40;57946.25;;;-144.78;79.85
55994;BME280;67425;52.126;20.638;2024-01-30T05:51:07;57910.94;;;-144.78;79.98
55994;BME280;67425;52.126;20.638;2024-01-30T05:53:32;57890.19;;;-144.78;76.85
55994;BME280;67425;52.126;20.638;2024-01-30T05:55:57;57863.19;;;-144.78;76.23
55994;BME280;67425;52.126;20.638;2024-01-30T05:58:23;57894.34;;;-144.78;76.15
55994;BME280;67425;52.126;20.638;2024-01-30T06:00:48;57894.34;;;-144.78;75.33
55994;BME280;67425;52.126;20.638;2024-01-30T06:03:13;57906.78;;;-144.78;76.75
55994;BME280;67425;52.126;20.638;2024-01-30T06:05:39;57944.19;;;-144.78;80.18
55994;BME280;67425;52.126;20.638;2024-01-30T06:08:04;57929.63;;;-144.78;80.65
55994;BME280;67425;52.126;20.638;2024-01-30T06:10:30;57923.41;;;-144.78;80.50
55994;BME280;67425;52.126;20.638;2024-01-30T06:12:55;57896.41;;;-144.78;79.28
55994;BME280;67425;52.126;20.638;2024-01-30T06:15:21;57910.94;;;-144.78;78.61
55994;BME280;67425;52.126;20.638;2024-01-30T06:17:46;57935.88;;;-144.78;78.62
55994;BME280;67425;52.126;20.638;2024-01-30T06:20:11;57910.94;;;-144.78;78.10
55994;BME280;67425;52.126;20.638;2024-01-30T06:22:37;57923.41;;;-144.78;77.20
55994;BME280;67425;52.126;20.638;2024-01-30T06:25:02;57906.78;;;-144.78;76.44
55994;BME280;67425;52.126;20.638;2024-01-30T06:27:28;57908.88;;;-144.78;76.05
55994;BME280;67425;52.126;20.638;2024-01-30T06:29:53;57890.19;;;-144.78;74.97
55994;BME280;67425;52.126;20.638;2024-01-30T06:32:18;57871.50;;;-144.78;75.19
55994;BME280;67425;52.126;20.638;2024-01-30T06:34:44;57900.56;;;-144.78;74.62
55994;BME280;67425;52.126;20.638;2024-01-30T06:37:09;57881.88;;;-144.78;74.52
55994;BME280;67425;52.126;20.638;2024-01-30T06:39:35;57900.56;;;-144.78;74.59
55994;BME280;67425;52.126;20.638;2024-01-30T06:42:00;57883.94;;;-144.78;74.04
55994;BME280;67425;52.126;20.638;2024-01-30T06:44:25;57875.63;;;-144.78;74.59
55994;BME280;67425;52.126;20.638;2024-01-30T06:46:51;57883.94;;;-144.78;74.74
55994;BME280;67425;52.126;20.638;2024-01-30T06:49:16;57883.94;;;-144.78;75.04
55994;BME280;67425;52.126;20.638;2024-01-30T06:51:42;57877.72;;;-144.78;74.41
55994;BME280;67425;52.126;20.638;2024-01-30T06:54:07;57867.34;;;-144.78;74.60
55994;BME280;67425;52.126;20.638;2024-01-30T06:56:32;57908.88;;;-144.78;76.20
55994;BME280;67425;52.126;20.638;2024-01-30T06:58:58;57875.63;;;-144.78;75.39
55994;BME280;67425;52.126;20.638;2024-01-30T07:01:28;57896.41;;;-144.78;74.67
55994;BME280;67425;52.126;20.638;2024-01-30T07:03:54;57865.25;;;-144.78;75.05
55994;BME280;67425;52.126;20.638;2024-01-30T07:06:20;57900.56;;;-144.78;74.97
55994;BME280;67425;52.126;20.638;2024-01-30T07:08:45;57898.50;;;-144.78;74.92
55994;BME280;67425;52.126;20.638;2024-01-30T07:11:10;57865.25;;;-144.78;74.68
55994;BME280;67425;52.126;20.638;2024-01-30T07:13:37;57894.34;;;-144.78;73.97
55994;BME280;67425;52.126;20.638;2024-01-30T07:16:03;57888.09;;;-144.78;73.82
55994;BME280;67425;52.126;20.638;2024-01-30T07:18:28;57881.88;;;-144.78;74.80
55994;BME280;67425;52.126;20.638;2024-01-30T07:20:53;57873.56;;;-144.78;74.42
55994;BME280;67425;52.126;20.638;2024-01-30T07:23:19;57890.19;;;-144.78;75.45
55994;BME280;67425;52.126;20.638;2024-01-30T07:25:44;57898.50;;;-144.78;75.57
55994;BME280;67425;52.126;20.638;2024-01-30T07:28:10;57886.03;;;-144.78;74.16
55994;BME280;67425;52.126;20.638;2024-01-30T07:30:36;57852.78;;;-144.78;74.48
55994;BME280;67425;52.126;20.638;2024-01-30T07:33:02;57875.63;;;-144.78;74.38
55994;BME280;67425;52.126;20.638;2024-01-30T07:35:27;57861.09;;;-144.78;74.34
55994;BME280;67425;52.126;20.638;2024-01-30T07:37:53;57886.03;;;-144.78;73.28
55994;BME280;67425;52.126;20.638;2024-01-30T07:40:18;57838.25;;;-144.78;72.36
55994;BME280;67425;52.126;20.638;2024-01-30T07:42:43;57879.78;;;-144.78;72.41
55994;BME280;67425;52.126;20.638;2024-01-30T07:45:09;57896.41;;;-144.78;73.29
55994;BME280;67425;52.126;20.638;2024-01-30T07:47:34;57875.63;;;-144.78;72.25
55994;BME280;67425;52.126;20.638;2024-01-30T07:50:00;57852.78;;;-144.78;71.43
55994;BME280;67425;52.126;20.638;2024-01-30T07:52:25;57861.09;;;-144.78;71.70
55994;BME280;67425;52.126;20.638;2024-01-30T07:54:51;57859.03;;;-144.78;71.70
55994;BME280;67425;52.126;20.638;2024-01-30T07:57:17;57861.09;;;-144.78;71.30
55994;BME280;67425;52.126;20.638;2024-01-30T07:59:43;57832.03;;;-144.78;71.47
55994;BME280;67425;52.126;20.638;2024-01-30T08:02:09;57848.63;;;-144.78;70.56
55994;BME280;67425;52.126;20.638;2024-01-30T08:04:35;57869.41;;;-144.78;69.86
55994;BME280;67425;52.126;20.638;2024-01-30T08:07:01;57859.03;;;-144.78;71.15
55994;BME280;67425;52.126;20.638;2024-01-30T08:09:26;57823.72;;;-144.78;71.49
55994;BME280;67425;52.126;20.638;2024-01-30T08:11:51;57869.41;;;-144.78;71.11
55994;BME280;67425;52.126;20.638;2024-01-30T08:14:17;57850.72;;;-144.78;70.19
55994;BME280;67425;52.126;20.638;2024-01-30T08:16:42;57838.25;;;-144.78;70.07
55994;BME280;67425;52.126;20.638;2024-01-30T08:19:07;57836.19;;;-144.78;69.32
55994;BME280;67425;52.126;20.638;2024-01-30T08:21:33;57815.41;;;-144.78;68.58
55994;BME280;67425;52.126;20.638;2024-01-30T08:24:03;57838.25;;;-144.78;68.84
55994;BME280;67425;52.126;20.638;2024-01-30T08:26:28;57823.72;;;-144.78;67.99
55994;BME280;67425;52.126;20.638;2024-01-30T08:28:54;57800.88;;;-144.78;69.20
55994;BME280;67425;52.126;20.638;2024-01-30T08:31:19;57832.03;;;-144.78;69.00
55994;BME280;67425;52.126;20.638;2024-01-30T08:33:44;57813.34;;;-144.78;68.40
55994;BME280;67425;52.126;20.638;2024-01-30T08:36:10;57825.78;;;-144.78;68.50
55994;BME280;67425;52.126;20.638;2024-01-30T08:38:35;57813.34;;;-144.78;68.45
55994;BME280;67425;52.126;20.638;2024-01-30T08:41:00;57844.47;;;-144.78;68.50
55994;BME280;67425;52.126;20.638;2024-01-30T08:43:26;57813.34;;;-144.78;67.51
55994;BME280;67425;52.126;20.638;2024-01-30T08:45:51;57821.63;;;-144.78;67.15
55994;BME280;67425;52.126;20.638;2024-01-30T08:48:16;57829.94;;;-144.78;67.07
55994;BME280;67425;52.126;20.638;2024-01-30T08:50:42;57815.41;;;-144.78;66.28
55994;BME280;67425;52.126;20.638;2024-01-30T08:53:08;57811.25;;;-144.78;66.65
55994;BME280;67425;52.126;20.638;2024-01-30T08:55:33;57827.88;;;-144.78;66.57
55994;BME280;67425;52.126;20.638;2024-01-30T08:57:58;57763.47;;;-144.78;66.23
55994;BME280;67425;52.126;20.638;2024-01-30T09:00:24;57823.72;;;-144.78;66.48
55994;BME280;67425;52.126;20.638;2024-01-30T09:02:50;57794.63;;;-144.78;64.77
55994;BME280;67425;52.126;20.638;2024-01-30T09:05:15;57782.19;;;-144.78;66.17
55994;BME280;67425;52.126;20.638;2024-01-30T09:07:40;57829.94;;;-144.78;66.43
55994;BME280;67425;52.126;20.638;2024-01-30T09:10:06;57832.03;;;-144.78;65.83
55994;BME280;67425;52.126;20.638;2024-01-30T09:12:32;57809.19;;;-144.78;65.42
55994;BME280;67425;52.126;20.638;2024-01-30T09:14:57;57829.94;;;-144.78;65.83
55994;BME280;67425;52.126;20.638;2024-01-30T09:17:22;57809.19;;;-144.78;64.69
55994;BME280;67425;52.126;20.638;2024-01-30T09:19:48;57792.56;;;-144.78;62.91
55994;BME280;67425;52.126;20.638;2024-01-30T09:22:13;57757.25;;;-144.78;62.87
55994;BME280;67425;52.126;20.638;2024-01-30T09:24:40;57809.19;;;-144.78;63.56
55994;BME280;67425;52.126;20.638;2024-01-30T09:27:05;57798.78;;;-144.78;63.20
55994;BME280;67425;52.126;20.638;2024-01-30T09:29:31;57790.47;;;-144.78;63.03
55994;BME280;67425;52.126;20.638;2024-01-30T09:31:59;57792.56;;;-144.78;62.97
55994;BME280;67425;52.126;20.638;2024-01-30T09:34:24;57765.56;;;-144.78;63.16
55994;BME280;67425;52.126;20.638;2024-01-30T09:36:50;57798.78;;;-144.78;62.12
55994;BME280;67425;52.126;20.638;2024-01-30T09:39:15;57763.47;;;-144.78;62.20
55994;BME280;67425;52.126;20.638;2024-01-30T09:42:02;57771.78;;;-144.78;61.37
55994;BME280;67425;52.126;20.638;2024-01-30T09:44:30;57807.09;;;-144.78;61.97
55994;BME280;67425;52.126;20.638;2024-01-30T09:46:56;57794.63;;;-144.78;62.44
55994;BME280;67425;52.126;20.638;2024-01-30T09:49:24;57767.63;;;-144.78;61.51
55994;BME280;67425;52.126;20.638;2024-01-30T09:51:50;57788.41;;;-144.78;61.12
55994;BME280;67425;52.126;20.638;2024-01-30T09:54:16;57784.25;;;-144.78;61.04
55994;BME280;67425;52.126;20.638;2024-01-30T09:56:42;57786.34;;;-144.78;61.00
55994;BME280;67425;52.126;20.638;2024-01-30T09:59:07;57796.72;;;-144.78;61.34
55994;BME280;67425;52.126;20.638;2024-01-30T10:01:34;57757.25;;;-144.78;59.05
55994;BME280;67425;52.126;20.638;2024-01-30T10:04:00;57798.78;;;-144.78;61.19
55994;BME280;67425;52.126;20.638;2024-01-30T10:06:26;57751.03;;;-144.78;60.95
55994;BME280;67425;52.126;20.638;2024-01-30T10:08:53;57794.63;;;-144.78;61.93
55994;BME280;67425;52.126;20.638;2024-01-30T10:11:18;57761.41;;;-144.78;61.24
55994;BME280;67425;52.126;20.638;2024-01-30T10:13:43;57786.34;;;-144.78;60.92
55994;BME280;67425;52.126;20.638;2024-01-30T10:16:09;57765.56;;;-144.78;61.19
55994;BME280;67425;52.126;20.638;2024-01-30T10:18:34;57771.78;;;-144.78;61.44
55994;BME280;67425;52.126;20.638;2024-01-30T10:20:59;57771.78;;;-144.78;60.90
55994;BME280;67425;52.126;20.638;2024-01-30T10:23:25;57763.47;;;-144.78;61.45
55994;BME280;67425;52.126;20.638;2024-01-30T10:25:51;57798.78;;;-144.78;60.35
55994;BME280;67425;52.126;20.638;2024-01-30T10:28:17;57769.72;;;-144.78;60.58
55994;BME280;67425;52.126;20.638;2024-01-30T10:30:42;57778.03;;;-144.78;59.77
55994;BME280;67425;52.126;20.638;2024-01-30T10:33:08;57744.78;;;-144.78;58.51
55994;BME280;67425;52.126;20.638;2024-01-30T10:35:33;57780.09;;;-144.78;59.20
55994;BME280;67425;52.126;20.638;2024-01-30T10:37:59;57740.63;;;-144.78;59.47
55994;BME280;67425;52.126;20.638;2024-01-30T10:40:28;57773.88;;;-144.78;58.07
55994;BME280;67425;52.126;20.638;2024-01-30T10:42:55;57761.41;;;-144.78;58.15
55994;BME280;67425;52.126;20.638;2024-01-30T10:45:22;57753.09;;;-144.78;58.85
55994;BME280;67425;52.126;20.638;2024-01-30T10:47:53;57769.72;;;-144.78;57.11
55994;BME280;67425;52.126;20.638;2024-01-30T10:50:19;57763.47;;;-144.78;57.39
55994;BME280;67425;52.126;20.638;2024-01-30T10:52:46;57740.63;;;-144.78;57.13
55994;BME280;67425;52.126;20.638;2024-01-30T10:55:12;57746.88;;;-144.78;54.81
55994;BME280;67425;52.126;20.638;2024-01-30T10:57:39;57726.09;;;-144.78;52.84
55994;BME280;67425;52.126;20.638;2024-01-30T11:00:09;57711.56;;;-144.78;52.21
55994;BME280;67425;52.126;20.638;2024-01-30T11:02:40;57724.03;;;-144.78;51.93
55994;BME280;67425;52.126;20.638;2024-01-30T11:05:06;57738.56;;;-144.78;50.48
55994;BME280;67425;52.126;20.638;2024-01-30T11:07:32;57724.03;;;-144.78;49.01
55994;BME280;67425;52.126;20.638;2024-01-30T11:12:23;57736.50;;;-144.78;48.82
55994;BME280;67425;52.126;20.638;2024-01-30T11:14:50;57709.50;;;-144.78;48.90
55994;BME280;67425;52.126;20.638;2024-01-30T11:17:27;57734.41;;;-144.78;49.24
55994;BME280;67425;52.126;20.638;2024-01-30T11:19:53;57724.03;;;-144.78;48.50
55994;BME280;67425;52.126;20.638;2024-01-30T11:22:20;57744.78;;;-144.78;48.99
55994;BME280;67425;52.126;20.638;2024-01-30T11:24:47;57742.72;;;-144.78;49.10
55994;BME280;67425;52.126;20.638;2024-01-30T11:27:12;57748.94;;;-144.78;49.51
55994;BME280;67425;52.126;20.638;2024-01-30T11:29:39;57732.34;;;-144.78;49.59
55994;BME280;67425;52.126;20.638;2024-01-30T11:32:05;57719.88;;;-144.78;48.80
55994;BME280;67425;52.126;20.638;2024-01-30T11:34:32;57751.03;;;-144.78;49.06
55994;BME280;67425;52.126;20.638;2024-01-30T11:37:01;57755.19;;;-144.78;49.81
55994;BME280;67425;52.126;20.638;2024-01-30T11:39:31;57717.78;;;-144.78;49.61
55994;BME280;67425;52.126;20.638;2024-01-30T11:41:56;57767.63;;;-144.78;49.69
55994;BME280;67425;52.126;20.638;2024-01-30T11:44:23;57728.19;;;-144.78;49.42
55994;BME280;67425;52.126;20.638;2024-01-30T11:46:50;57744.78;;;-144.78;48.82
55994;BME280;67425;52.126;20.638;2024-01-30T11:49:16;57732.34;;;-144.78;48.56
55994;BME280;67425;52.126;20.638;2024-01-30T11:51:42;57755.19;;;-144.78;48.34
55994;BME280;67425;52.126;20.638;2024-01-30T11:54:08;57738.56;;;-144.78;48.79
55994;BME280;67425;52.126;20.638;2024-01-30T11:56:34;57753.09;;;-144.78;48.45
55994;BME280;67425;52.126;20.638;2024-01-30T11:58:59;57736.50;;;-144.78;47.61
55994;BME280;67425;52.126;20.638;2024-01-30T12:01:26;57719.88;;;-144.78;47.87
55994;BME280;67425;52.126;20.638;2024-01-30T12:03:52;57726.09;;;-144.78;47.75
55994;BME280;67425;52.126;20.638;2024-01-30T12:06:17;57717.78;;;-144.78;47.14
55994;BME280;67425;52.126;20.638;2024-01-30T12:08:43;57746.88;;;-144.78;47.94
55994;BME280;67425;52.126;20.638;2024-01-30T12:11:09;57721.94;;;-144.78;48.15
55994;BME280;67425;52.126;20.638;2024-01-30T12:13:35;57701.19;;;-144.78;48.42
55994;BME280;67425;52.126;20.638;2024-01-30T12:16:00;57730.25;;;-144.78;48.32
55994;BME280;67425;52.126;20.638;2024-01-30T12:18:26;57744.78;;;-144.78;47.79
55994;BME280;67425;52.126;20.638;2024-01-30T12:21:00;57705.34;;;-144.78;47.72
55994;BME280;67425;52.126;20.638;2024-01-30T12:23:27;57707.41;;;-144.78;45.51
55994;BME280;67425;52.126;20.638;2024-01-30T12:25:53;57705.34;;;-144.78;45.00